Pays
Station

 

Conditions  météo  pour  Phoenix, Phoenix Sky Harbor International Airport  -  Etats-Unis    Etats-Unis

  
9 °C
    
 
 

METAR pour Phoenix, Phoenix Sky Harbor International Airport :

KPHX 191051Z 11004KT 10SM FEW250 09/03 A3010 RMK AO2 SLP184 T00890033

 

Voici le bulletin pour Phoenix, Phoenix Sky Harbor International Airport - Etats-Unis.
 
Le bulletin a été fait il y a 41 minutes, à 10:51 UTC .
Le vent soufflait à la vitesse de 2.1 mètres par seconde de Est/Sud-est (110°).
 
La température était de 9 °C, avec un point de rosée à 3 °C.
La pression atmosphérique était de 1019 hPa.
L'humidité relative était de 66.0%.
 
Il y avait 1 à 2/8ème de nébulosité à une hauteur de 7620 mètres.
 
La visibilité globale était de 16.1 kilomètres.
 

 
 
 

Pays :   A   B   C   D   E   F   G   H   I   J   K   L   M   N   O   P   Q   R   S   T   U   V   W   Y   Z

 

Partenaires :  Info Météo avec Met'info
Météo Marine avec MeteoMarine.net
Infos Site  |  Infos Légales  |  Crédits  |  Confidentialité
Contactez-nous  |  Ajouter aux favoris
© 2013-2018 METAR - Tous droits réservés